< < Back
Terminal Aerodrome Forecast


Current Version              Previous Versions:   1  2  3  4  5  6  7  8  9  

Terminal Aerodrome Forecast

089
FTUS44 KOHX 031700
TAFCSV
TAF
KCSV 031740Z 0318/0418 20006KT P6SM SCT060 SCT250
      TEMPO 0319/0323 BKN060 BKN250
     FM041400 19004KT P6SM SCT060 SCT250=

Latest METAR

165
SAUS70 KWBC 032200 RRE
MTRCSV
METAR KCSV 032153Z AUTO VRB03KT 10SM FEW065 FEW080 23/07 A3013 RMK AO2
SLP193 T02330072


USA.gov is the U.S. government's official web portal to all federal, state and local government web resources and services.